createdAt,value
2017-07-01T00:01:35.640Z,20.90
2017-07-01T00:04:02.316Z,19.57
2017-07-01T00:06:28.983Z,22.47
2017-07-01T00:08:55.640Z,21.30
2017-07-01T00:11:22.344Z,23.13
2017-07-01T00:13:49.007Z,22.80
2017-07-01T00:16:15.659Z,22.87
2017-07-01T00:18:42.348Z,20.97
2017-07-01T00:21:09.026Z,22.70
2017-07-01T00:23:35.672Z,24.70
2017-07-01T00:26:02.328Z,26.77
2017-07-01T00:28:29.022Z,23.80
2017-07-01T00:30:55.698Z,24.73
2017-07-01T00:33:22.338Z,25.30
2017-07-01T00:35:49.039Z,24.33
2017-07-01T00:38:15.713Z,23.27
2017-07-01T00:40:42.380Z,26.95
2017-07-01T00:43:09.048Z,24.90
2017-07-01T00:45:35.726Z,25.63
2017-07-01T00:48:02.371Z,23.60
2017-07-01T00:50:29.106Z,25.93
2017-07-01T00:52:55.762Z,25.87
2017-07-01T00:55:22.427Z,27.77
2017-07-01T00:57:49.123Z,29.33
2017-07-01T01:00:15.775Z,27.40
2017-07-01T01:02:42.443Z,28.13
2017-07-01T01:05:09.191Z,26.47
2017-07-01T01:07:35.847Z,28.50
2017-07-01T01:10:02.495Z,28.50
2017-07-01T01:12:29.201Z,27.87
2017-07-01T01:14:55.858Z,27.77
2017-07-01T01:17:22.517Z,29.83
2017-07-01T01:19:49.268Z,31.63
2017-07-01T01:22:15.910Z,28.90
2017-07-01T01:24:42.567Z,28.67
2017-07-01T01:27:09.228Z,33.50
2017-07-01T01:29:35.890Z,31.60
2017-07-01T01:32:02.562Z,34.77
2017-07-01T01:34:29.227Z,34.43
2017-07-01T01:36:55.869Z,34.33
2017-07-01T01:39:22.523Z,28.00
2017-07-01T01:41:49.226Z,34.33
2017-07-01T01:44:15.890Z,32.27
2017-07-01T01:46:42.564Z,34.20
2017-07-01T01:49:09.228Z,34.40
2017-07-01T01:51:35.895Z,34.87
2017-07-01T01:54:02.585Z,34.30
2017-07-01T01:56:29.248Z,34.33
2017-07-01T01:58:55.888Z,34.70
2017-07-01T02:01:22.546Z,32.13
2017-07-01T02:03:49.213Z,34.20
2017-07-01T02:06:15.852Z,35.33
2017-07-01T02:08:42.527Z,36.90
2017-07-01T02:11:09.202Z,37.20
2017-07-01T02:13:35.867Z,41.03
2017-07-01T02:16:03.464Z,39.90
2017-07-01T02:18:30.151Z,40.10
2017-07-01T02:20:59.531Z,42.57
2017-07-01T02:23:26.195Z,42.80
2017-07-01T02:26:13.804Z,41.20
2017-07-01T02:28:41.296Z,35.60
2017-07-01T02:31:07.931Z,0.80
2017-07-01T02:33:40.442Z,2.50
2017-07-01T02:36:12.965Z,1.27
2017-07-01T02:38:39.648Z,0.70
2017-07-01T02:41:06.322Z,0.80
2017-07-01T02:43:32.980Z,1.20
2017-07-01T02:45:59.619Z,0.70
2017-07-01T02:48:43.093Z,0.73
2017-07-01T02:51:19.656Z,0.73
2017-07-01T02:53:46.337Z,0.70
2017-07-01T02:56:12.989Z,0.80
2017-07-01T02:58:41.356Z,0.80
2017-07-01T03:01:08.066Z,0.70
2017-07-01T03:03:34.722Z,0.80
2017-07-01T03:06:01.378Z,0.80
2017-07-01T03:08:28.059Z,0.80
2017-07-01T03:10:54.722Z,0.73
2017-07-01T03:13:21.383Z,0.70
2017-07-01T03:15:48.067Z,29.77
2017-07-01T03:18:14.735Z,36.90
2017-07-01T03:20:41.398Z,34.70
2017-07-01T03:23:10.851Z,33.77
2017-07-01T03:25:37.572Z,35.07
2017-07-01T03:28:04.226Z,33.40
2017-07-01T03:30:30.912Z,32.13
2017-07-01T03:32:57.578Z,29.67
2017-07-01T03:35:24.229Z,18.00
2017-07-01T03:38:11.563Z,27.00
2017-07-01T03:40:40.032Z,32.07
2017-07-01T03:43:12.627Z,32.10
2017-07-01T03:45:42.934Z,30.27
2017-07-01T03:48:09.587Z,25.80
2017-07-01T03:50:36.250Z,27.90
2017-07-01T03:53:20.730Z,26.90
2017-07-01T03:55:47.435Z,28.90
2017-07-01T03:58:14.851Z,20.17
2017-07-01T04:00:41.511Z,24.00
2017-07-01T04:03:08.188Z,19.23
2017-07-01T04:05:34.840Z,18.00
2017-07-01T04:08:01.526Z,19.07
2017-07-01T04:10:28.239Z,18.90
2017-07-01T04:12:54.908Z,18.67
2017-07-01T04:15:21.561Z,19.57
2017-07-01T04:17:48.244Z,21.50
2017-07-01T04:20:14.887Z,20.23
2017-07-01T04:22:42.132Z,5.40
2017-07-01T04:25:08.783Z,0.70
2017-07-01T04:27:36.218Z,1.33
2017-07-01T04:30:02.871Z,0.80
2017-07-01T04:32:29.547Z,0.80
2017-07-01T04:34:56.264Z,0.70
2017-07-01T04:37:22.900Z,0.80
2017-07-01T04:39:49.577Z,0.80
2017-07-01T04:42:17.082Z,0.70
2017-07-01T04:44:49.820Z,0.80
2017-07-01T04:47:16.460Z,0.73
2017-07-01T04:49:43.112Z,0.70
2017-07-01T04:52:14.527Z,0.70
2017-07-01T04:54:42.056Z,0.70
2017-07-01T04:57:09.425Z,0.80
2017-07-01T04:59:37.879Z,0.80
2017-07-01T05:02:05.304Z,0.80
2017-07-01T05:04:34.784Z,0.77
2017-07-01T05:07:04.315Z,0.77
2017-07-01T05:09:34.746Z,0.80
2017-07-01T05:12:01.380Z,0.70
2017-07-01T05:14:33.723Z,0.80
2017-07-01T05:17:00.387Z,0.70
2017-07-01T05:19:30.752Z,0.80
2017-07-01T05:21:57.411Z,0.80
2017-07-01T05:24:29.968Z,0.80
2017-07-01T05:26:56.599Z,0.80
2017-07-01T05:29:23.283Z,0.70
2017-07-01T05:31:49.931Z,0.70
2017-07-01T05:34:21.450Z,0.70
2017-07-01T05:36:48.141Z,0.80
2017-07-01T05:39:29.678Z,0.73
2017-07-01T05:42:16.063Z,0.80
2017-07-01T05:44:50.375Z,0.80
2017-07-01T05:47:18.622Z,0.80
2017-07-01T05:49:45.276Z,0.70
2017-07-01T05:52:11.930Z,0.80
2017-07-01T05:54:38.622Z,0.70
2017-07-01T05:57:05.274Z,0.80
2017-07-01T05:59:37.792Z,0.70
2017-07-01T06:02:04.474Z,0.80
2017-07-01T06:04:31.865Z,0.80
2017-07-01T06:06:58.521Z,0.73
2017-07-01T06:09:30.991Z,0.80
2017-07-01T06:11:57.643Z,0.70
2017-07-01T06:14:24.280Z,0.80
2017-07-01T06:16:50.931Z,0.70
2017-07-01T06:19:38.467Z,0.77
2017-07-01T06:22:08.845Z,0.70
2017-07-01T06:24:35.494Z,0.70
2017-07-01T06:27:02.942Z,0.80
2017-07-01T06:29:45.309Z,0.80
2017-07-01T06:32:15.734Z,0.80
2017-07-01T06:35:00.251Z,0.70
2017-07-01T06:37:32.683Z,0.80
2017-07-01T06:39:59.367Z,0.80
2017-07-01T06:42:32.762Z,0.80
2017-07-01T06:44:59.404Z,0.80
2017-07-01T06:47:26.078Z,0.50
2017-07-01T06:49:52.724Z,0.70
2017-07-01T06:52:22.111Z,0.80
2017-07-01T06:54:48.805Z,0.80
2017-07-01T06:57:15.523Z,0.70
2017-07-01T06:59:42.172Z,0.80
2017-07-01T07:02:08.838Z,0.80
2017-07-01T07:04:35.514Z,0.80
2017-07-01T07:07:02.174Z,0.70
2017-07-01T07:09:28.851Z,0.70
2017-07-01T07:11:55.530Z,0.80
2017-07-01T07:14:22.182Z,0.70
2017-07-01T07:16:48.823Z,0.80
2017-07-01T07:19:15.515Z,0.70
2017-07-01T07:21:42.170Z,0.80
2017-07-01T07:24:08.822Z,0.80
2017-07-01T07:26:35.530Z,0.70
2017-07-01T07:29:02.202Z,0.80
2017-07-01T07:31:28.837Z,0.80
2017-07-01T07:33:55.526Z,0.80
2017-07-01T07:36:22.173Z,0.73
2017-07-01T07:38:48.837Z,0.80
2017-07-01T07:41:15.552Z,0.80
2017-07-01T07:43:42.243Z,0.70
2017-07-01T07:46:08.879Z,0.70
2017-07-01T07:48:35.574Z,0.80
2017-07-01T07:51:02.239Z,0.70
2017-07-01T07:53:28.892Z,0.70
2017-07-01T07:55:55.584Z,0.70
2017-07-01T07:58:22.224Z,0.70
2017-07-01T08:00:48.901Z,0.80
2017-07-01T08:03:15.563Z,0.70
2017-07-01T08:05:42.212Z,0.73
2017-07-01T08:08:08.863Z,0.70
2017-07-01T08:10:35.599Z,0.70
2017-07-01T08:13:02.263Z,0.80
2017-07-01T08:15:29.152Z,0.80
2017-07-01T08:17:56.000Z,0.80
2017-07-01T08:20:22.655Z,0.80
2017-07-01T08:22:49.297Z,0.80
2017-07-01T08:25:16.082Z,0.80
2017-07-01T08:27:42.772Z,0.80
2017-07-01T08:30:09.442Z,0.77
2017-07-01T08:32:36.200Z,0.80
2017-07-01T08:35:02.897Z,0.80
2017-07-01T08:37:29.556Z,0.77
2017-07-01T08:39:56.219Z,0.80
2017-07-01T08:42:22.893Z,0.80
2017-07-01T08:44:49.544Z,0.70
2017-07-01T08:47:16.212Z,0.80
2017-07-01T08:49:42.906Z,0.80
2017-07-01T08:52:09.543Z,0.80
2017-07-01T08:54:36.224Z,0.77
2017-07-01T08:57:02.919Z,0.80
2017-07-01T08:59:29.578Z,0.70
2017-07-01T09:01:56.242Z,0.70
2017-07-01T09:04:22.906Z,0.70
2017-07-01T09:06:49.559Z,0.70
2017-07-01T09:09:16.232Z,0.70
2017-07-01T09:11:42.929Z,0.80
2017-07-01T09:14:09.586Z,0.80
2017-07-01T09:16:36.259Z,0.70
2017-07-01T09:19:02.914Z,0.70
2017-07-01T09:21:29.578Z,0.80
2017-07-01T09:23:56.394Z,0.73
2017-07-01T09:26:23.056Z,0.80
2017-07-01T09:28:49.711Z,0.70
2017-07-01T09:31:16.386Z,0.70
2017-07-01T09:33:43.025Z,0.80
2017-07-01T09:36:09.667Z,0.80
2017-07-01T09:38:36.366Z,0.70
2017-07-01T09:41:03.045Z,0.70
2017-07-01T09:43:29.702Z,0.70
2017-07-01T09:45:56.367Z,0.70
2017-07-01T09:48:23.078Z,13.70
2017-07-01T09:50:49.772Z,11.30
2017-07-01T09:53:16.432Z,11.93
2017-07-01T09:55:43.130Z,13.60
2017-07-01T11:57:34.962Z,11.30
2017-07-01T12:03:57.731Z,8.73
2017-07-01T12:06:24.404Z,9.83
2017-07-01T12:08:51.057Z,11.07
2017-07-01T12:11:17.784Z,11.83
2017-07-01T12:13:44.490Z,11.03
2017-07-01T12:16:11.136Z,12.93
2017-07-01T12:18:37.782Z,11.33
2017-07-01T12:21:04.453Z,11.30
2017-07-01T12:23:31.156Z,10.87
2017-07-01T12:25:57.814Z,12.97
2017-07-01T12:28:24.524Z,11.80
2017-07-01T12:30:51.176Z,12.67
2017-07-01T12:33:17.868Z,13.43
2017-07-01T12:35:44.569Z,12.43
2017-07-01T12:38:11.236Z,10.83
2017-07-01T12:40:37.911Z,11.57
2017-07-01T12:43:04.668Z,13.93
2017-07-01T12:45:31.307Z,13.50
2017-07-01T12:47:57.976Z,12.37
2017-07-01T12:50:24.671Z,11.23
2017-07-01T12:52:51.385Z,12.93
2017-07-01T12:55:18.043Z,13.03
2017-07-01T12:57:44.728Z,12.60
2017-07-01T13:00:11.389Z,13.10
2017-07-01T13:02:38.064Z,12.87
2017-07-01T13:05:04.775Z,11.73
2017-07-01T13:07:31.465Z,13.20
2017-07-01T13:09:58.123Z,13.80
2017-07-01T13:12:24.843Z,16.47
2017-07-01T13:14:51.497Z,14.77
2017-07-01T13:17:18.172Z,16.10
2017-07-01T13:19:44.844Z,16.30
2017-07-01T13:22:11.518Z,17.97
2017-07-01T13:24:38.222Z,15.13
2017-07-01T13:27:04.907Z,14.17
2017-07-01T13:29:31.552Z,12.20
2017-07-01T13:31:58.230Z,11.80
2017-07-01T13:34:24.936Z,14.83
2017-07-01T13:36:51.646Z,14.37
2017-07-01T13:39:18.315Z,14.67
2017-07-01T13:41:44.998Z,14.33
2017-07-01T13:44:11.703Z,15.43
2017-07-01T13:46:38.406Z,13.50
2017-07-01T13:49:05.076Z,13.13
2017-07-01T13:51:31.751Z,12.90
2017-07-01T13:53:58.570Z,17.93
2017-07-01T13:56:25.271Z,12.77
2017-07-01T13:58:52.804Z,14.80
2017-07-01T14:01:19.578Z,15.77
2017-07-01T14:03:46.343Z,12.47
2017-07-01T14:06:13.170Z,14.60
2017-07-01T14:08:39.883Z,15.37
2017-07-01T14:11:06.625Z,13.70
2017-07-01T14:13:33.400Z,13.67
2017-07-01T14:16:00.054Z,14.47
2017-07-01T14:18:26.761Z,14.10
2017-07-01T14:20:53.492Z,15.90
2017-07-01T14:23:20.173Z,14.50
2017-07-01T14:25:46.826Z,16.30
2017-07-01T14:28:13.536Z,14.83
2017-07-01T14:30:40.206Z,14.37
2017-07-01T14:33:06.873Z,15.20
2017-07-01T14:35:33.575Z,14.90
2017-07-01T14:38:00.248Z,15.67
2017-07-01T14:40:26.904Z,14.60
2017-07-01T14:42:53.585Z,16.60
2017-07-01T14:45:20.253Z,13.97
2017-07-01T14:47:46.910Z,15.90
2017-07-01T14:50:13.623Z,17.03
2017-07-01T14:52:40.313Z,15.50
2017-07-01T14:55:06.993Z,15.40
2017-07-01T14:57:33.677Z,13.53
2017-07-01T15:00:00.359Z,16.80
2017-07-01T15:02:27.018Z,13.90
2017-07-01T15:04:53.773Z,15.17
2017-07-01T15:07:20.482Z,15.77
2017-07-01T15:09:47.281Z,14.20
2017-07-01T15:12:14.083Z,14.77
2017-07-01T15:14:40.841Z,15.53
2017-07-01T15:17:07.641Z,14.87
2017-07-01T15:19:34.342Z,15.27
2017-07-01T15:22:01.146Z,14.30
2017-07-01T15:24:27.825Z,16.07
2017-07-01T15:26:54.539Z,14.03
2017-07-01T15:29:21.203Z,12.50
2017-07-01T15:31:47.887Z,11.90
2017-07-01T15:34:14.568Z,11.73
2017-07-01T15:36:41.251Z,10.03
2017-07-01T15:39:07.902Z,13.03
2017-07-01T15:41:34.584Z,10.43
2017-07-01T15:44:01.271Z,10.53
2017-07-01T15:46:27.942Z,9.97
2017-07-01T15:48:54.609Z,8.83
2017-07-01T15:51:21.270Z,10.00
2017-07-01T15:53:47.933Z,8.30
2017-07-01T15:56:14.607Z,7.80
2017-07-01T15:58:41.271Z,9.30
2017-07-01T16:01:13.884Z,8.73
2017-07-01T16:03:40.573Z,7.80
2017-07-01T16:06:07.216Z,8.20
2017-07-01T16:08:33.884Z,8.03
2017-07-01T16:11:00.523Z,6.53
2017-07-01T16:13:27.204Z,5.93
2017-07-01T16:15:53.894Z,6.30
2017-07-01T16:18:20.604Z,8.20
2017-07-01T16:20:47.300Z,6.17
2017-07-01T16:23:14.349Z,6.90
2017-07-01T16:25:41.044Z,5.93
2017-07-01T16:28:07.853Z,5.93
2017-07-01T16:30:34.574Z,8.03
2017-07-01T16:33:01.356Z,5.53
2017-07-01T16:35:28.035Z,6.10
2017-07-01T16:37:54.786Z,7.13
2017-07-01T16:40:21.585Z,7.23
2017-07-01T16:42:48.271Z,7.50
2017-07-01T16:45:14.972Z,5.73
2017-07-01T16:47:41.720Z,7.13
2017-07-01T16:50:08.422Z,6.70
2017-07-01T16:52:35.210Z,7.10
2017-07-01T16:55:02.047Z,8.60
2017-07-01T16:57:28.735Z,10.37
2017-07-01T16:59:55.391Z,7.60
2017-07-01T17:02:22.086Z,7.20
2017-07-01T17:04:48.770Z,6.97
2017-07-01T17:07:15.505Z,8.37
2017-07-01T17:09:42.284Z,7.87
2017-07-01T17:12:08.986Z,7.03
2017-07-01T17:14:35.961Z,6.93
2017-07-01T17:17:02.676Z,8.60
2017-07-01T17:19:29.636Z,7.97
2017-07-01T17:21:56.475Z,7.97
2017-07-01T17:24:23.195Z,9.57
2017-07-01T17:26:49.909Z,8.10
2017-07-01T17:29:16.578Z,13.00
2017-07-01T17:31:43.283Z,8.90
2017-07-01T17:34:09.990Z,7.00
2017-07-01T17:36:36.645Z,8.97
2017-07-01T17:39:03.316Z,6.70
2017-07-01T17:41:29.972Z,9.10
2017-07-01T17:43:56.875Z,9.00
2017-07-01T17:46:23.609Z,10.20
2017-07-01T17:48:50.278Z,9.70
2017-07-01T17:51:16.987Z,7.30
2017-07-01T17:53:43.695Z,7.47
2017-07-01T17:56:10.394Z,11.53
2017-07-01T17:58:37.086Z,7.67
2017-07-01T18:01:03.859Z,7.87
2017-07-01T18:03:30.515Z,6.03
2017-07-01T18:05:57.233Z,6.97
2017-07-01T18:08:23.936Z,5.83
2017-07-01T18:10:50.610Z,12.20
2017-07-01T18:13:17.284Z,6.17
2017-07-01T18:15:43.979Z,7.30
2017-07-01T18:18:10.634Z,8.27
2017-07-01T18:20:37.316Z,8.97
2017-07-01T18:23:04.007Z,7.33
2017-07-01T18:25:30.666Z,7.97
2017-07-01T18:27:57.371Z,8.80
2017-07-01T18:30:24.009Z,7.77
2017-07-01T18:32:50.662Z,7.60
2017-07-01T18:35:17.366Z,8.10
2017-07-01T18:37:44.177Z,7.13
2017-07-01T18:40:10.869Z,9.40
2017-07-01T18:42:37.636Z,8.70
2017-07-01T18:45:04.328Z,9.37
2017-07-01T18:47:31.061Z,10.57
2017-07-01T18:49:57.730Z,8.50
2017-07-01T18:52:24.416Z,9.07
2017-07-01T18:54:51.084Z,9.37
2017-07-01T18:57:17.790Z,23.83
2017-07-01T18:59:44.447Z,20.30
2017-07-01T19:02:11.147Z,9.17
2017-07-01T19:04:37.842Z,9.20
2017-07-01T19:07:04.537Z,8.50
2017-07-01T19:09:31.187Z,7.90
2017-07-01T19:11:58.617Z,9.03
2017-07-01T19:14:25.340Z,8.70
2017-07-01T19:16:52.022Z,8.70
2017-07-01T19:19:18.675Z,9.30
2017-07-01T19:21:45.350Z,8.90
2017-07-01T19:24:12.050Z,8.33
2017-07-01T19:26:38.734Z,11.50
2017-07-01T19:29:05.388Z,31.47
2017-07-01T19:31:32.126Z,9.93
2017-07-01T19:33:58.864Z,10.27
2017-07-01T19:36:25.573Z,8.77
2017-07-01T19:38:52.252Z,8.43
2017-07-01T19:41:18.911Z,25.67
2017-07-01T19:43:45.599Z,8.07
2017-07-01T19:46:12.290Z,7.23
2017-07-01T19:48:38.985Z,9.40
2017-07-01T19:51:05.671Z,8.90
2017-07-01T19:53:32.328Z,17.47
2017-07-01T19:55:58.968Z,7.60
2017-07-01T19:58:25.715Z,7.40
2017-07-01T20:00:52.377Z,6.80
2017-07-01T20:03:19.062Z,8.67
2017-07-01T20:05:45.777Z,7.60
2017-07-01T20:08:12.451Z,6.80
2017-07-01T20:10:39.120Z,7.47
2017-07-01T20:13:05.822Z,6.03
2017-07-01T20:15:32.468Z,8.20
2017-07-01T20:17:59.107Z,8.37
2017-07-01T20:20:25.814Z,6.77
2017-07-01T20:22:52.456Z,6.67
2017-07-01T20:25:19.108Z,8.00
2017-07-01T20:27:45.831Z,6.90
2017-07-01T20:30:12.493Z,6.70
2017-07-01T20:32:39.141Z,7.03
2017-07-01T20:35:05.863Z,6.37
2017-07-01T20:37:32.524Z,7.12
2017-07-01T20:39:59.172Z,6.60
2017-07-01T20:42:25.824Z,7.40
2017-07-01T20:44:52.484Z,10.03
2017-07-01T20:47:19.136Z,15.47
2017-07-01T20:49:45.832Z,5.80
2017-07-01T20:52:12.475Z,6.13
2017-07-01T20:54:39.131Z,5.80
2017-07-01T20:57:05.793Z,6.00
2017-07-01T20:59:32.491Z,6.70
2017-07-01T21:01:59.133Z,6.53
2017-07-01T21:04:25.815Z,9.13
2017-07-01T21:06:52.496Z,7.03
2017-07-01T21:09:19.141Z,6.27
2017-07-01T21:11:45.827Z,7.20
2017-07-01T21:14:12.506Z,6.30
2017-07-01T21:16:39.165Z,9.53
2017-07-01T21:19:05.816Z,7.60
2017-07-01T21:21:32.507Z,6.17
2017-07-01T21:23:59.213Z,10.77
2017-07-01T21:26:25.864Z,9.10
2017-07-01T21:28:52.524Z,5.83
2017-07-01T21:31:19.219Z,7.00
2017-07-01T21:33:45.891Z,7.20
2017-07-01T21:36:12.549Z,9.23
2017-07-01T21:38:39.210Z,6.87
2017-07-01T21:41:05.970Z,10.93
2017-07-01T21:43:32.612Z,10.97
2017-07-01T21:45:59.299Z,11.27
2017-07-01T21:48:25.964Z,19.30
2017-07-01T21:50:52.613Z,8.10
2017-07-01T21:53:19.287Z,6.53
2017-07-01T21:55:45.937Z,14.43
2017-07-01T21:58:12.590Z,7.80
2017-07-01T22:00:39.287Z,7.37
2017-07-01T22:03:05.992Z,6.80
2017-07-01T22:05:32.649Z,7.20
2017-07-01T22:07:59.296Z,7.47
2017-07-01T22:10:25.984Z,11.80
2017-07-01T22:12:52.675Z,9.40
2017-07-01T22:15:19.313Z,6.90
2017-07-01T22:17:46.072Z,6.87
2017-07-01T22:20:12.940Z,6.83
2017-07-01T22:22:39.607Z,7.47
2017-07-01T22:25:06.288Z,7.30
2017-07-01T22:27:32.958Z,20.20
2017-07-01T22:29:59.618Z,7.80
2017-07-01T22:32:26.280Z,7.93
2017-07-01T22:34:52.960Z,10.57
2017-07-01T22:37:19.621Z,7.83
2017-07-01T22:39:46.879Z,20.53
2017-07-01T22:42:13.570Z,30.30
2017-07-01T22:44:40.235Z,7.47
2017-07-01T22:47:06.883Z,6.63
2017-07-01T22:49:33.599Z,9.63
2017-07-01T22:52:00.416Z,9.57
2017-07-01T22:54:27.088Z,17.67
2017-07-01T22:56:53.747Z,5.80
2017-07-01T22:59:20.388Z,6.20
2017-07-01T23:01:47.028Z,6.20
2017-07-01T23:04:13.717Z,6.30
2017-07-01T23:06:40.355Z,7.13
2017-07-01T23:09:07.042Z,5.70
2017-07-01T23:11:33.722Z,6.10
2017-07-01T23:14:00.433Z,6.60
2017-07-01T23:16:27.093Z,5.13
2017-07-01T23:18:53.732Z,4.60
2017-07-01T23:21:20.393Z,5.60
2017-07-01T23:23:47.040Z,8.30
2017-07-01T23:26:13.708Z,6.10
2017-07-01T23:28:40.446Z,6.00
2017-07-01T23:31:07.106Z,5.27
2017-07-01T23:33:33.759Z,5.97
2017-07-01T23:36:00.445Z,5.23
2017-07-01T23:38:27.084Z,5.70
2017-07-01T23:40:53.747Z,6.70
2017-07-01T23:43:20.437Z,5.10
2017-07-01T23:45:47.186Z,7.43
2017-07-01T23:48:13.841Z,5.60
2017-07-01T23:50:40.503Z,5.03
2017-07-01T23:53:07.169Z,5.30
2017-07-01T23:55:33.815Z,8.23
2017-07-01T23:58:00.479Z,6.07
